Time;durP1;ratioP1;P1;durP2;ratioP2;P2;SDS_P1;SDS_P2;PMS_P1;PMS_P2;Temp;Humidity;BMP_temperature;BMP_pressure;BME280_temperature;BME280_humidity;BME280_pressure;Samples;Min_cycle;Max_cycle;Signal;HPM_P1;HPM_P2
2023/09/25 00:00:34;;;;;;;12.00;6.10;;;;;;;17.81;100.00;101538.08;106018;1257;68593;-84
2023/09/25 00:03:03;;;;;;;;;;;;;;;17.70;100.00;101541.89;105971;1259;70836;-83
2023/09/25 00:05:30;;;;;;;10.40;6.10;;;;;;;17.66;100.00;101542.41;106174;1257;61377;-83
2023/09/25 00:07:57;;;;;;;12.50;7.00;;;;;;;17.70;100.00;101544.27;105964;1262;61231;-88
2023/09/25 00:10:24;;;;;;;10.60;6.00;;;;;;;17.77;100.00;101539.25;106177;1257;74622;-85
2023/09/25 00:12:51;;;;;;;11.30;6.70;;;;;;;17.73;100.00;101537.80;106073;1256;67339;-83
2023/09/25 00:15:18;;;;;;;15.60;6.90;;;;;;;17.74;100.00;101540.56;106218;1256;71239;-83
2023/09/25 00:17:45;;;;;;;15.00;7.20;;;;;;;17.79;100.00;101534.35;105965;1257;61279;-83
2023/09/25 00:20:12;;;;;;;11.50;5.50;;;;;;;17.78;100.00;101538.17;106056;1257;61166;-83
2023/09/25 00:22:40;;;;;;;9.70;5.70;;;;;;;17.69;100.00;101541.36;106059;1258;73516;-87
2023/09/25 00:25:07;;;;;;;10.30;6.20;;;;;;;17.59;100.00;101546.87;106061;1257;68485;-88
2023/09/25 00:27:34;;;;;;;15.90;6.50;;;;;;;17.53;100.00;101549.95;106169;1258;72700;-88
2023/09/25 00:30:05;;;;;;;12.70;6.40;;;;;;;17.41;100.00;101549.81;105871;1263;61308;-83
2023/09/25 00:32:33;;;;;;;10.90;6.40;;;;;;;17.41;100.00;101547.52;107683;1257;61330;-87
2023/09/25 00:35:01;;;;;;;12.00;7.10;;;;;;;17.42;100.00;101549.89;108518;1257;73779;-87
2023/09/25 00:37:29;;;;;;;11.00;6.60;;;;;;;17.42;100.00;101553.20;105858;1257;67279;-89
2023/09/25 00:39:58;;;;;;;10.90;6.10;;;;;;;17.35;100.00;101557.17;106149;1257;70634;-88
2023/09/25 00:42:26;;;;;;;11.80;6.80;;;;;;;17.29;100.00;101555.88;106116;1260;61179;-84
2023/09/25 00:44:53;;;;;;;11.00;6.00;;;;;;;17.26;100.00;101557.92;106029;1257;61128;-89
2023/09/25 00:47:21;;;;;;;11.70;6.90;;;;;;;17.23;100.00;101558.13;105917;1257;74544;-88
2023/09/25 00:49:48;;;;;;;8.60;6.10;;;;;;;17.21;100.00;101560.68;106129;1257;66539;-83
2023/09/25 00:52:15;;;;;;;9.80;6.10;;;;;;;17.18;100.00;101560.89;106151;1256;71692;-89
2023/09/25 00:54:43;;;;;;;9.60;6.30;;;;;;;17.19;100.00;101565.02;106156;1258;61791;-84
2023/09/25 00:57:10;;;;;;;12.20;6.20;;;;;;;17.23;100.00;101568.79;106017;1258;61180;-87
2023/09/25 00:59:38;;;;;;;13.40;7.60;;;;;;;17.23;100.00;101566.52;106019;1259;74682;-84
2023/09/25 01:02:06;;;;;;;9.70;6.00;;;;;;;17.16;100.00;101567.38;106030;1257;67834;-84
2023/09/25 01:04:33;;;;;;;11.50;5.60;;;;;;;17.14;100.00;101570.45;106136;1257;72532;-89
2023/09/25 01:07:01;;;;;;;8.40;5.60;;;;;;;17.07;100.00;101575.67;106125;1257;61300;-84
2023/09/25 01:09:28;;;;;;;12.00;6.80;;;;;;;16.93;100.00;101577.84;106017;1262;59495;-86
2023/09/25 01:11:56;;;;;;;11.40;6.40;;;;;;;16.86;100.00;101573.12;106107;1256;74512;-88
2023/09/25 01:14:23;;;;;;;15.20;6.80;;;;;;;16.86;100.00;101575.59;106101;1257;68776;-83
2023/09/25 01:16:50;;;;;;;8.80;6.10;;;;;;;16.84;100.00;101578.95;106120;1260;71739;-84
2023/09/25 01:19:18;;;;;;;8.60;6.50;;;;;;;16.89;100.00;101577.73;106005;1260;61314;-88
2023/09/25 01:21:46;;;;;;;11.30;6.40;;;;;;;16.92;100.00;101580.61;106196;1261;61250;-83
2023/09/25 01:24:13;;;;;;;10.80;6.70;;;;;;;16.90;100.00;101581.79;105995;1257;74536;-88
2023/09/25 01:26:41;;;;;;;12.60;6.10;;;;;;;16.89;100.00;101583.57;106140;1257;67209;-88
2023/09/25 01:29:08;;;;;;;7.40;5.20;;;;;;;16.88;100.00;101584.85;106112;1258;72561;-84
2023/09/25 01:31:35;;;;;;;12.40;6.30;;;;;;;16.84;100.00;101584.85;106172;1257;61226;-88
2023/09/25 01:34:04;;;;;;;11.70;5.70;;;;;;;16.77;100.00;101586.23;108079;1257;61296;-84
2023/09/25 01:36:32;;;;;;;12.90;6.30;;;;;;;16.71;100.00;101585.91;106533;1257;73383;-89
2023/09/25 01:38:59;;;;;;;13.10;6.80;;;;;;;16.68;100.00;101584.88;106079;1257;68495;-84
2023/09/25 01:41:28;;;;;;;8.00;5.40;;;;;;;16.63;100.00;101586.55;106150;1258;72643;-85
2023/09/25 01:43:55;;;;;;;12.20;6.30;;;;;;;16.60;100.00;101584.75;105976;1263;61283;-88
2023/09/25 01:46:23;;;;;;;11.90;6.20;;;;;;;16.64;100.00;101587.64;105935;1265;61350;-84
2023/09/25 01:48:50;;;;;;;12.10;6.30;;;;;;;16.63;100.00;101589.80;106114;1258;72833;-89
2023/09/25 01:51:18;;;;;;;11.90;6.80;;;;;;;16.62;100.00;101592.57;106015;1257;67441;-84
2023/09/25 01:53:46;;;;;;;11.30;6.60;;;;;;;16.64;100.00;101593.54;106072;1257;72460;-84
2023/09/25 01:56:13;;;;;;;12.20;6.30;;;;;;;16.68;100.00;101594.48;106057;1260;61287;-84
2023/09/25 01:58:41;;;;;;;11.10;5.90;;;;;;;16.67;100.00;101593.29;106019;1259;61120;-84
2023/09/25 02:01:09;;;;;;;8.20;5.80;;;;;;;16.59;100.00;101595.46;105910;1260;74734;-84
2023/09/25 02:03:36;;;;;;;12.40;7.00;;;;;;;16.50;100.00;101596.77;106019;1257;68566;-89
2023/09/25 02:06:04;;;;;;;9.70;6.60;;;;;;;16.46;100.00;101603.93;106342;1257;71178;-83
2023/09/25 02:08:31;;;;;;;18.50;6.90;;;;;;;16.41;100.00;101606.23;106106;1259;61243;-84
2023/09/25 02:10:59;;;;;;;11.70;6.50;;;;;;;16.40;100.00;101608.14;106092;1258;61143;-83
2023/09/25 02:13:26;;;;;;;8.90;6.60;;;;;;;16.42;100.00;101608.98;105974;1256;74689;-88
2023/09/25 02:15:54;;;;;;;10.60;6.20;;;;;;;16.35;100.00;101618.70;106301;1260;68676;-88
2023/09/25 02:18:21;;;;;;;10.80;6.50;;;;;;;16.37;100.00;101615.93;106074;1262;72324;-88
2023/09/25 02:20:50;;;;;;;11.80;6.90;;;;;;;16.37;100.00;101616.27;107196;1257;61290;-87
2023/09/25 02:23:18;;;;;;;12.00;6.90;;;;;;;16.36;100.00;101613.85;106422;1257;61204;-88
2023/09/25 02:25:50;;;;;;;11.10;6.40;;;;;;;16.36;100.00;101617.71;106161;1262;73456;-88
2023/09/25 02:28:19;;;;;;;10.90;6.60;;;;;;;16.25;100.00;101614.60;106056;1262;67483;-83
2023/09/25 02:30:46;;;;;;;12.50;7.40;;;;;;;16.27;100.00;101619.23;106202;1262;72034;-83
2023/09/25 02:33:13;;;;;;;10.60;6.20;;;;;;;16.25;100.00;101617.42;106113;1256;61141;-83
2023/09/25 02:35:40;;;;;;;9.50;6.20;;;;;;;16.23;100.00;101618.16;106102;1261;61116;-83
2023/09/25 02:38:07;;;;;;;8.80;5.90;;;;;;;16.22;100.00;101616.23;105928;1259;73370;-89
2023/09/25 02:40:34;;;;;;;13.20;6.50;;;;;;;16.20;100.00;101618.73;106003;1258;67201;-84
2023/09/25 02:43:01;;;;;;;11.20;6.60;;;;;;;16.13;100.00;101620.56;106069;1257;71663;-83
2023/09/25 02:45:28;;;;;;;10.10;6.10;;;;;;;16.08;100.00;101625.34;106034;1257;62079;-88
2023/09/25 02:47:55;;;;;;;9.00;5.90;;;;;;;16.08;100.00;101623.64;106063;1258;61238;-83
2023/09/25 02:50:22;;;;;;;12.30;6.20;;;;;;;15.97;100.00;101628.67;105989;1257;73161;-85
2023/09/25 02:52:50;;;;;;;12.00;6.60;;;;;;;15.95;100.00;101632.33;106166;1260;67867;-88
2023/09/25 02:55:17;;;;;;;9.30;6.50;;;;;;;15.94;100.00;101635.98;105952;1257;70773;-84
2023/09/25 02:57:45;;;;;;;9.60;6.60;;;;;;;15.99;100.00;101632.86;106011;1258;61832;-87
2023/09/25 03:00:13;;;;;;;12.20;7.00;;;;;;;15.98;100.00;101640.13;106176;1256;61237;-88
2023/09/25 03:02:42;;;;;;;10.70;6.60;;;;;;;15.97;100.00;101643.18;106131;1259;73737;-89
2023/09/25 03:05:09;;;;;;;10.20;7.30;;;;;;;16.01;100.00;101640.61;106050;1262;67183;-83
2023/09/25 03:07:37;;;;;;;10.90;7.40;;;;;;;16.02;100.00;101635.70;106302;1257;72814;-83
2023/09/25 03:10:05;;;;;;;9.10;5.50;;;;;;;16.02;100.00;101633.21;106012;1257;61344;-83
2023/09/25 03:12:32;;;;;;;9.90;6.20;;;;;;;15.99;100.00;101628.55;106646;1259;61220;-83
2023/09/25 03:14:59;;;;;;;13.90;6.00;;;;;;;15.92;100.00;101627.39;106184;1262;72292;-86
2023/09/25 03:17:26;;;;;;;13.40;6.90;;;;;;;15.89;100.00;101627.42;106077;1259;69113;-87
2023/09/25 03:19:53;;;;;;;10.20;6.40;;;;;;;15.88;100.00;101627.42;106137;1257;71112;-87
2023/09/25 03:22:20;;;;;;;9.90;6.70;;;;;;;15.86;100.00;101627.11;106020;1258;61229;-83
2023/09/25 03:24:48;;;;;;;12.10;6.60;;;;;;;15.84;100.00;101631.96;106249;1259;61146;-84
2023/09/25 03:27:16;;;;;;;10.40;6.70;;;;;;;15.82;100.00;101626.52;105996;1257;73793;-84
2023/09/25 03:29:44;;;;;;;9.60;6.10;;;;;;;15.81;100.00;101628.40;106166;1257;68478;-88
2023/09/25 03:32:11;;;;;;;10.90;6.80;;;;;;;15.80;100.00;101632.27;105900;1260;71451;-84
2023/09/25 03:34:40;;;;;;;11.60;6.80;;;;;;;15.71;100.00;101635.63;106959;1257;61129;-88
2023/09/25 03:37:07;;;;;;;10.50;7.20;;;;;;;15.64;100.00;101632.23;106123;1262;61229;-84
2023/09/25 03:39:36;;;;;;;11.30;6.80;;;;;;;15.63;100.00;101636.81;106063;1258;74991;-84
2023/09/25 03:42:03;;;;;;;12.70;6.00;;;;;;;15.59;100.00;101635.89;106017;1262;67380;-84
2023/09/25 03:44:30;;;;;;;11.60;6.70;;;;;;;15.58;100.00;101638.10;106117;1260;71331;-88
2023/09/25 03:46:57;;;;;;;11.20;7.00;;;;;;;15.64;100.00;101640.89;106047;1259;61215;-89
2023/09/25 03:49:24;;;;;;;9.70;6.20;;;;;;;15.66;100.00;101642.20;106096;1261;61107;-89
2023/09/25 03:51:51;;;;;;;12.50;7.00;;;;;;;15.68;100.00;101641.09;105995;1258;74701;-89
2023/09/25 03:54:19;;;;;;;13.10;7.50;;;;;;;15.67;100.00;101640.92;105831;1257;68748;-83
2023/09/25 03:56:46;;;;;;;13.30;7.10;;;;;;;15.62;100.00;101641.78;106541;1256;72480;-88
2023/09/25 03:59:14;;;;;;;12.50;7.00;;;;;;;15.65;100.00;101646.65;106009;1258;61268;-89
2023/09/25 04:01:40;;;;;;;9.90;6.40;;;;;;;15.72;100.00;101650.29;106170;1257;61328;-83
2023/09/25 04:04:07;;;;;;;10.60;6.00;;;;;;;15.84;100.00;101653.02;106069;1262;74484;-89
2023/09/25 04:06:35;;;;;;;9.30;6.10;;;;;;;15.92;100.00;101655.23;106078;1259;68601;-88
2023/09/25 04:09:03;;;;;;;11.70;6.20;;;;;;;15.95;100.00;101657.52;106133;1262;72706;-89
2023/09/25 04:11:30;;;;;;;12.80;6.70;;;;;;;15.92;100.00;101660.14;105946;1262;61366;-88
2023/09/25 04:13:57;;;;;;;13.00;7.00;;;;;;;15.96;100.00;101661.16;106023;1262;61308;-83
2023/09/25 04:16:24;;;;;;;12.10;6.70;;;;;;;15.95;100.00;101661.94;106165;1257;74447;-88
2023/09/25 04:18:51;;;;;;;12.30;7.40;;;;;;;15.98;100.00;101658.66;106114;1259;67301;-86
2023/09/25 04:21:19;;;;;;;12.10;7.30;;;;;;;16.02;100.00;101658.73;106078;1257;196877;-89
2023/09/25 04:23:46;;;;;;;15.30;6.70;;;;;;;16.07;100.00;101657.11;106033;1259;61552;-83
2023/09/25 04:26:13;;;;;;;20.50;8.60;;;;;;;16.16;100.00;101657.43;106126;1258;61335;-89
2023/09/25 04:28:40;;;;;;;16.50;7.70;;;;;;;16.28;100.00;101655.63;106017;1259;73224;-83
2023/09/25 04:31:07;;;;;;;14.50;8.00;;;;;;;16.38;100.00;101661.43;106104;1259;68423;-83
2023/09/25 04:33:38;;;;;;;14.50;8.30;;;;;;;16.45;100.00;101663.31;106106;1262;72560;-89
2023/09/25 04:36:10;;;;;;;14.80;8.20;;;;;;;16.57;100.00;101667.95;105998;1265;61818;-84
2023/09/25 04:38:37;;;;;;;15.40;8.00;;;;;;;16.71;100.00;101673.56;106002;1262;61252;-89
2023/09/25 04:41:05;;;;;;;15.70;8.10;;;;;;;16.90;100.00;101674.49;108232;1257;73154;-89
2023/09/25 04:43:32;;;;;;;16.80;8.80;;;;;;;17.03;100.00;101678.27;106022;1259;68412;-84
2023/09/25 04:46:00;;;;;;;17.20;8.70;;;;;;;17.14;100.00;101678.55;105916;1256;72501;-83
2023/09/25 04:48:31;;;;;;;16.90;8.40;;;;;;;17.27;100.00;101682.64;106220;1256;61832;-89
2023/09/25 04:50:58;;;;;;;22.00;9.40;;;;;;;17.38;100.00;101683.23;106323;1256;60251;-87
2023/09/25 04:53:25;;;;;;;16.20;9.20;;;;;;;17.54;100.00;101682.80;107414;1259;74637;-88
2023/09/25 04:55:52;;;;;;;18.60;9.90;;;;;;;17.69;100.00;101686.80;107519;1259;67606;-84
2023/09/25 04:58:19;;;;;;;21.40;9.20;;;;;;;17.81;100.00;101688.20;106041;1261;72677;-84
2023/09/25 05:00:46;;;;;;;15.80;9.10;;;;;;;17.95;100.00;101691.10;106037;1258;61266;-85
2023/09/25 05:03:13;;;;;;;16.40;7.80;;;;;;;18.17;100.00;101692.54;105974;1259;61322;-89
2023/09/25 05:05:41;;;;;;;18.00;7.50;;;;;;;18.36;100.00;101693.80;106023;1256;74402;-89
2023/09/25 05:08:08;;;;;;;17.60;7.50;;;;;;;18.55;100.00;101690.10;106018;1259;68801;-89
2023/09/25 05:10:35;;;;;;;16.00;8.40;;;;;;;18.73;100.00;101692.89;106099;1259;71388;-89
2023/09/25 05:13:02;;;;;;;20.50;7.80;;;;;;;18.94;100.00;101691.91;106066;1260;62105;-88
2023/09/25 05:15:35;;;;;;;18.20;7.90;;;;;;;19.17;100.00;101691.48;106889;1257;61179;-86
2023/09/25 05:18:03;;;;;;;;;;;;;;;19.39;100.00;101694.18;105933;1259;73505;-86
2023/09/25 05:20:30;;;;;;;14.70;7.90;;;;;;;19.56;100.00;101691.40;106275;1260;67371;-86
2023/09/25 05:22:57;;;;;;;15.60;7.90;;;;;;;19.76;100.00;101697.54;106239;1260;72453;-86
2023/09/25 05:25:24;;;;;;;13.10;7.50;;;;;;;19.96;100.00;101690.94;106229;1258;62308;-86
2023/09/25 05:27:52;;;;;;;16.40;7.90;;;;;;;20.17;100.00;101689.27;106071;1262;61154;-86
2023/09/25 05:30:19;;;;;;;15.30;8.10;;;;;;;20.41;100.00;101686.84;106978;1257;74836;-86
2023/09/25 05:32:48;;;;;;;15.00;8.40;;;;;;;20.61;100.00;101688.89;106189;1257;68508;-87
2023/09/25 05:35:15;;;;;;;15.00;7.90;;;;;;;20.81;100.00;101684.61;106367;1258;72478;-87
2023/09/25 05:37:43;;;;;;;13.60;8.50;;;;;;;21.08;100.00;101684.50;106016;1259;61712;-87
2023/09/25 05:40:11;;;;;;;15.40;8.20;;;;;;;21.35;100.00;101684.35;106289;1260;61114;-87
2023/09/25 05:42:38;;;;;;;15.70;8.20;;;;;;;21.54;100.00;101684.30;106523;1257;73987;-87
2023/09/25 05:45:06;;;;;;;13.00;7.30;;;;;;;21.76;100.00;101686.70;106421;1259;68690;-87
2023/09/25 05:47:33;;;;;;;14.70;8.50;;;;;;;22.00;100.00;101687.77;106024;1258;72750;-86
2023/09/25 05:50:01;;;;;;;15.10;7.80;;;;;;;22.26;100.00;101687.78;106285;1259;61240;-87
2023/09/25 05:52:28;;;;;;;16.60;8.70;;;;;;;22.42;100.00;101690.20;106213;1259;61273;-87
2023/09/25 05:54:55;;;;;;;18.00;9.40;;;;;;;22.68;100.00;101692.64;106170;1257;74675;-88
2023/09/25 05:57:22;;;;;;;32.20;13.20;;;;;;;22.98;100.00;101689.70;106150;1260;68567;-87
2023/09/25 05:59:49;;;;;;;22.80;10.50;;;;;;;23.25;100.00;101690.52;106120;1257;72713;-85
2023/09/25 06:02:16;;;;;;;21.70;10.50;;;;;;;23.50;100.00;101696.97;106708;1257;59845;-88
2023/09/25 06:04:43;;;;;;;19.50;9.70;;;;;;;23.80;100.00;101693.52;106474;1259;61239;-88
2023/09/25 06:07:12;;;;;;;19.30;8.70;;;;;;;24.15;100.00;101702.66;106141;1262;73441;-85
2023/09/25 06:09:39;;;;;;;19.60;9.50;;;;;;;24.47;100.00;101698.91;106313;1259;67458;-86
2023/09/25 06:12:06;;;;;;;17.90;9.50;;;;;;;24.79;100.00;101701.35;106274;1257;72516;-86
2023/09/25 06:14:33;;;;;;;17.30;9.70;;;;;;;25.03;100.00;101704.09;106275;1262;61313;-85
2023/09/25 06:17:02;;;;;;;15.80;8.60;;;;;;;25.26;100.00;101706.36;106166;1258;59637;-86
2023/09/25 06:19:30;;;;;;;21.10;9.40;;;;;;;25.43;99.84;101705.80;106221;1258;64792;-85
2023/09/25 06:21:57;;;;;;;20.00;9.20;;;;;;;25.66;97.77;101708.23;106285;1259;61152;-87
2023/09/25 06:24:25;;;;;;;20.10;9.60;;;;;;;25.96;94.09;101709.94;106321;1259;62601;-87
2023/09/25 06:26:53;;;;;;;16.70;9.00;;;;;;;26.21;91.87;101707.58;106215;1259;61449;-86
2023/09/25 06:29:23;;;;;;;20.00;9.40;;;;;;;26.44;89.45;101710.07;106073;1262;61310;-86
2023/09/25 06:31:50;;;;;;;16.10;8.00;;;;;;;26.59;87.67;101710.84;106066;1258;65906;-86
2023/09/25 06:34:28;;;;;;;19.90;8.30;;;;;;;26.81;86.46;101710.86;106313;1257;61256;-88
2023/09/25 06:36:56;;;;;;;18.00;8.60;;;;;;;27.12;84.27;101715.66;107060;1257;62465;-87
2023/09/25 06:39:23;;;;;;;19.20;8.20;;;;;;;27.32;82.56;101720.37;106145;1258;61257;-88
2023/09/25 06:41:50;;;;;;;17.80;8.90;;;;;;;27.46;81.02;101723.33;106470;1262;61575;-88
2023/09/25 06:44:22;;;;;;;17.20;8.70;;;;;;;27.59;80.19;101727.65;106290;1259;65691;-88
2023/09/25 06:46:49;;;;;;;18.30;8.70;;;;;;;27.69;78.76;101732.63;106107;1264;61267;-86
2023/09/25 06:49:17;;;;;;;21.40;9.50;;;;;;;27.80;77.69;101732.08;106214;1259;62958;-89
2023/09/25 06:51:44;;;;;;;21.40;11.80;;;;;;;27.99;76.13;101733.16;106163;1262;61267;-86
2023/09/25 06:54:12;;;;;;;21.00;10.40;;;;;;;27.90;77.46;101738.27;106178;1262;61172;-88
2023/09/25 06:56:39;;;;;;;16.50;8.90;;;;;;;28.08;76.04;101743.96;106180;1259;65846;-88
2023/09/25 06:59:06;;;;;;;20.10;9.50;;;;;;;28.27;74.87;101744.52;106271;1257;61129;-88
2023/09/25 07:01:33;;;;;;;17.40;9.30;;;;;;;28.39;73.72;101744.60;106208;1260;65270;-86
2023/09/25 07:04:01;;;;;;;18.20;9.10;;;;;;;28.45;73.87;101746.42;106242;1259;60834;-86
2023/09/25 07:06:30;;;;;;;16.30;9.50;;;;;;;28.47;73.49;101750.48;106321;1258;61270;-88
2023/09/25 07:08:57;;;;;;;19.00;9.10;;;;;;;28.47;72.85;101748.64;106219;1262;65754;-88
2023/09/25 07:11:24;;;;;;;21.10;9.20;;;;;;;28.58;71.33;101751.42;106192;1262;61282;-88
2023/09/25 07:13:51;;;;;;;20.30;8.40;;;;;;;28.64;69.77;101750.42;106261;1257;64245;-87
2023/09/25 07:16:18;;;;;;;17.00;8.90;;;;;;;28.71;68.39;101751.20;106286;1258;61302;-86
2023/09/25 07:18:47;;;;;;;21.80;9.10;;;;;;;28.87;66.91;101753.19;106363;1260;61271;-88
2023/09/25 07:21:15;;;;;;;18.50;9.50;;;;;;;28.99;64.81;101754.53;106595;1258;64461;-87
2023/09/25 07:23:42;;;;;;;19.30;9.80;;;;;;;29.06;63.44;101759.26;107187;1261;61116;-86
2023/09/25 07:26:09;;;;;;;19.20;8.70;;;;;;;29.14;61.94;101761.89;106259;1259;62496;-86
2023/09/25 07:28:37;;;;;;;16.40;9.30;;;;;;;29.27;62.26;101767.19;106135;1257;61152;-88
2023/09/25 07:31:05;;;;;;;13.80;8.30;;;;;;;29.32;61.90;101760.05;106214;1257;61257;-85
2023/09/25 07:33:32;;;;;;;19.30;9.30;;;;;;;29.54;61.84;101763.45;106124;1257;66552;-88
2023/09/25 07:36:00;;;;;;;20.20;9.50;;;;;;;29.64;61.10;101764.83;106149;1263;61157;-88
2023/09/25 07:38:30;;;;;;;17.50;8.90;;;;;;;29.71;60.75;101764.54;106268;1260;63879;-88
2023/09/25 07:40:57;;;;;;;17.90;8.30;;;;;;;29.85;61.10;101764.83;106213;1258;61202;-85
2023/09/25 07:43:29;;;;;;;14.40;7.00;;;;;;;30.01;60.64;101767.71;106212;1257;61208;-86
2023/09/25 14:10:06;;;;;;;7.50;3.90;;;;;;;34.24;21.37;101694.47;106087;1262;63881;-87
2023/09/25 14:12:36;;;;;;;11.70;4.90;;;;;;;34.24;21.62;101695.61;106091;1257;61176;-86
2023/09/25 14:15:04;;;;;;;10.50;4.00;;;;;;;34.21;21.57;101695.54;106537;1257;61241;-87
2023/09/25 14:17:32;;;;;;;10.00;3.70;;;;;;;34.13;22.14;101695.50;105987;1263;66029;-86
2023/09/25 14:20:00;;;;;;;7.40;3.80;;;;;;;34.03;21.87;101693.58;106312;1257;61238;-87
2023/09/25 14:22:28;;;;;;;12.90;4.30;;;;;;;33.97;22.26;101696.35;106157;1257;65241;-87
2023/09/25 14:24:57;;;;;;;5.80;3.30;;;;;;;33.93;22.74;101697.91;106959;1257;61231;-89
2023/09/25 14:27:24;;;;;;;11.90;5.00;;;;;;;33.83;23.21;101699.96;106197;1257;61110;-87
2023/09/25 14:29:51;;;;;;;9.70;4.30;;;;;;;33.81;23.52;101701.27;106182;1262;66850;-88
2023/09/25 14:32:19;;;;;;;7.10;3.80;;;;;;;33.72;23.63;101700.50;106234;1257;61253;-87
2023/09/25 14:34:46;;;;;;;9.20;4.20;;;;;;;33.59;23.82;101703.20;106322;1257;64795;-87
2023/09/25 14:37:13;;;;;;;11.40;5.40;;;;;;;33.50;24.24;101704.98;106425;1257;61230;-87
2023/09/25 14:39:43;;;;;;;12.80;4.70;;;;;;;33.51;24.77;101707.95;106490;1258;61326;-87
2023/09/25 14:42:10;;;;;;;11.90;4.80;;;;;;;33.36;24.54;101705.88;106372;1258;66787;-87
2023/09/25 14:44:37;;;;;;;9.30;5.70;;;;;;;33.26;25.34;101705.23;106072;1257;61304;-87
2023/09/25 14:47:04;;;;;;;13.70;6.60;;;;;;;33.16;25.96;101706.95;106268;1258;63760;-87
2023/09/25 14:49:32;;;;;;;16.40;6.40;;;;;;;33.06;26.32;101704.92;106187;1262;61247;-87
2023/09/25 14:51:59;;;;;;;15.00;6.10;;;;;;;32.97;26.38;101713.32;106096;1257;61314;-87
2023/09/25 14:54:26;;;;;;;15.40;6.30;;;;;;;32.90;26.56;101712.66;106032;1258;65995;-87
2023/09/25 14:56:53;;;;;;;18.90;7.30;;;;;;;32.82;27.03;101714.20;106209;1263;61228;-87
2023/09/25 14:59:20;;;;;;;16.30;6.00;;;;;;;32.73;27.35;101712.23;105991;1261;62871;-87
2023/09/25 15:01:47;;;;;;;13.00;5.20;;;;;;;32.52;27.47;101713.80;106169;1258;61288;-87
2023/09/25 15:04:18;;;;;;;13.70;6.10;;;;;;;32.36;27.77;101712.21;106086;1258;61131;-87
2023/09/25 15:06:45;;;;;;;16.30;6.20;;;;;;;32.24;29.18;101715.64;106127;1257;66167;-87
2023/09/25 15:09:13;;;;;;;13.60;6.20;;;;;;;32.15;29.89;101720.70;106150;1257;61312;-87
2023/09/25 15:11:40;;;;;;;7.20;4.90;;;;;;;32.02;30.15;101721.14;106182;1257;62603;-87
2023/09/25 15:14:07;;;;;;;17.10;4.90;;;;;;;31.87;30.44;101722.64;106091;1258;61260;-87
2023/09/25 15:16:35;;;;;;;18.40;7.40;;;;;;;31.69;30.71;101723.19;106061;1263;61234;-87
2023/09/25 15:19:02;;;;;;;17.60;7.90;;;;;;;31.59;31.17;101722.32;106092;1263;65823;-85
2023/09/25 15:21:29;;;;;;;19.00;7.90;;;;;;;31.44;31.70;101722.94;106099;1261;61115;-87
2023/09/25 15:23:56;;;;;;;15.20;6.70;;;;;;;31.33;32.23;101726.45;106102;1262;64044;-86
2023/09/25 15:26:23;;;;;;;156.80;69.00;;;;;;;31.15;33.00;101724.39;106098;1257;61343;-85
2023/09/25 15:28:52;;;;;;;53.60;24.10;;;;;;;31.00;33.73;101722.64;106601;1263;61247;-85
2023/09/25 15:31:19;;;;;;;35.40;15.50;;;;;;;30.81;34.43;101727.20;106129;1260;66339;-85
2023/09/25 15:33:46;;;;;;;87.20;34.40;;;;;;;30.62;35.24;101727.56;106282;1257;61135;-86
2023/09/25 15:36:14;;;;;;;141.80;59.20;;;;;;;30.43;35.62;101726.88;106079;1257;64857;-84
2023/09/25 15:38:41;;;;;;;76.00;29.40;;;;;;;30.28;36.13;101729.73;106069;1261;61286;-87
2023/09/25 15:41:08;;;;;;;68.50;28.90;;;;;;;30.06;36.44;101733.16;106120;1257;61261;-85
2023/09/25 15:43:36;;;;;;;58.20;23.70;;;;;;;29.84;36.96;101734.16;106019;1257;66016;-85
2023/09/25 15:46:14;;;;;;;54.50;21.10;;;;;;;29.63;37.58;101736.88;106246;1259;61372;-85
2023/09/25 15:48:42;;;;;;;49.00;19.60;;;;;;;29.45;38.17;101737.88;106170;1257;65778;-86
2023/09/25 15:51:10;;;;;;;52.00;21.00;;;;;;;29.22;39.07;101745.39;106517;1259;61119;-85
2023/09/25 15:53:37;;;;;;;31.70;13.50;;;;;;;28.85;40.10;101744.56;106023;1257;61233;-85
2023/09/25 15:56:04;;;;;;;47.30;17.60;;;;;;;28.67;41.04;101745.27;106174;1258;67474;-85
2023/09/25 15:58:31;;;;;;;41.50;14.00;;;;;;;28.50;41.96;101748.14;106217;1257;61168;-86
2023/09/25 16:00:59;;;;;;;55.90;24.10;;;;;;;28.33;42.76;101747.53;105968;1257;64866;-85
2023/09/25 16:03:26;;;;;;;50.40;21.20;;;;;;;28.11;43.44;101747.08;106937;1262;61261;-84
2023/09/25 16:05:53;;;;;;;48.60;21.30;;;;;;;27.89;44.12;101750.59;106280;1260;61344;-84
2023/09/25 16:08:21;;;;;;;45.10;18.10;;;;;;;27.67;44.71;101750.70;106143;1259;67044;-85
2023/09/25 16:10:48;;;;;;;25.50;11.50;;;;;;;27.48;45.35;101751.04;106152;1258;61340;-85
2023/09/25 16:13:15;;;;;;;32.80;14.20;;;;;;;27.37;46.51;101756.47;106098;1257;63966;-85
2023/09/25 16:15:42;;;;;;;36.70;14.30;;;;;;;27.28;46.67;101755.85;106158;1257;61276;-85
2023/09/25 16:18:10;;;;;;;40.70;16.50;;;;;;;27.13;47.35;101752.09;106267;1258;62486;-85
2023/09/25 16:20:37;;;;;;;43.90;17.70;;;;;;;26.93;47.68;101752.77;106066;1258;116851;-85
2023/09/25 16:23:04;;;;;;;34.40;14.60;;;;;;;26.79;48.21;101754.22;106089;1257;61022;-85
2023/09/25 16:25:31;;;;;;;37.40;15.10;;;;;;;26.60;49.30;101759.39;106099;1262;65150;-85
2023/09/25 16:27:58;;;;;;;40.40;16.60;;;;;;;26.40;50.12;101762.73;106048;1257;61115;-85
2023/09/25 16:30:26;;;;;;;44.90;17.60;;;;;;;26.26;51.18;101763.04;106205;1257;61256;-85
2023/09/25 16:32:53;;;;;;;32.70;15.50;;;;;;;26.13;51.90;101762.27;106452;1258;67063;-85
2023/09/25 16:35:21;;;;;;;38.80;17.10;;;;;;;26.00;52.79;101763.91;106351;1258;61346;-85
2023/09/25 16:37:48;;;;;;;43.50;19.60;;;;;;;25.90;53.47;101762.50;106131;1259;64841;-85
2023/09/25 16:40:15;;;;;;;40.70;15.70;;;;;;;25.76;54.33;101763.97;106156;1258;61171;-85
2023/09/25 16:42:43;;;;;;;38.80;17.10;;;;;;;25.66;55.33;101771.63;106084;1257;61254;-85
2023/09/25 16:45:11;;;;;;;36.50;15.90;;;;;;;25.53;56.30;101769.92;106139;1262;67027;-85
2023/09/25 16:47:38;;;;;;;38.80;16.00;;;;;;;25.42;56.67;101772.14;107129;1257;70411;-86
2023/09/25 16:50:06;;;;;;;32.70;16.10;;;;;;;25.32;56.95;101773.71;106805;1256;72731;-85
2023/09/25 16:52:33;;;;;;;51.00;16.90;;;;;;;25.16;57.92;101777.55;106168;1257;61923;-85
2023/09/25 16:55:01;;;;;;;35.50;15.60;;;;;;;24.97;59.27;101781.05;106234;1261;61749;-85
2023/09/25 16:57:29;;;;;;;42.70;16.60;;;;;;;24.87;60.45;101783.94;106173;1257;74709;-85
2023/09/25 16:59:58;;;;;;;43.10;16.70;;;;;;;24.73;61.81;101787.27;105960;1257;69836;-86
2023/09/25 17:02:25;;;;;;;35.00;15.70;;;;;;;24.64;62.51;101784.73;106299;1262;73980;-87
2023/09/25 17:04:53;;;;;;;39.40;16.40;;;;;;;24.53;63.28;101785.58;105960;1257;63262;-85
2023/09/25 17:07:23;;;;;;;50.90;18.20;;;;;;;24.41;64.43;101782.17;106113;1259;61302;-85
2023/09/25 17:09:50;;;;;;;53.80;17.10;;;;;;;24.31;65.53;101786.33;106021;1256;75917;-85
2023/09/25 17:12:17;;;;;;;49.50;19.00;;;;;;;24.16;66.20;101787.77;106126;1262;69566;-87
2023/09/25 17:14:44;;;;;;;37.00;15.60;;;;;;;24.04;66.62;101792.64;106056;1257;71547;-84
2023/09/25 17:17:12;;;;;;;25.20;11.80;;;;;;;23.98;67.00;101795.14;106121;1257;61436;-85
2023/09/25 17:19:39;;;;;;;24.10;11.70;;;;;;;23.96;67.03;101795.44;106306;1258;61835;-86
2023/09/25 17:22:06;;;;;;;25.80;13.90;;;;;;;23.89;67.26;101795.48;106203;1257;74770;-84
2023/09/25 17:24:33;;;;;;;23.00;12.00;;;;;;;23.84;67.51;101798.57;105959;1257;70471;-84
2023/09/25 17:27:01;;;;;;;25.40;11.40;;;;;;;23.78;66.23;101800.21;106143;1258;71807;-86
2023/09/25 17:29:28;;;;;;;26.30;12.80;;;;;;;23.68;66.37;101801.27;106202;1257;61181;-84